Time;durP1;ratioP1;P1;durP2;ratioP2;P2;SDS_P1;SDS_P2;PMS_P1;PMS_P2;Temp;Humidity;BMP_temperature;BMP_pressure;BME280_temperature;BME280_humidity;BME280_pressure;Samples;Min_cycle;Max_cycle;Signal;HPM_P1;HPM_P2
2022/07/24 00:01:29;;;;;;;23.83;14.23;;;19.50;99.90;;;;;;4975331;28;20027;-68
2022/07/24 00:03:54;;;;;;;23.70;14.23;;;19.50;99.90;;;;;;4975616;28;20035;-66
2022/07/24 00:06:20;;;;;;;22.42;13.95;;;19.50;99.90;;;;;;4975317;28;20461;-67
2022/07/24 00:08:45;;;;;;;23.83;15.80;;;19.40;99.90;;;;;;4975229;28;20037;-69
2022/07/24 00:11:11;;;;;;;22.80;11.95;;;19.40;99.90;;;;;;4975097;28;20109;-66
2022/07/24 00:13:37;;;;;;;23.50;14.95;;;19.40;99.90;;;;;;4975142;28;20117;-65
2022/07/24 00:16:03;;;;;;;25.73;13.40;;;19.40;99.90;;;;;;4974460;28;20023;-66
2022/07/24 00:18:28;;;;;;;22.90;13.55;;;19.40;99.90;;;;;;4974729;28;20037;-66
2022/07/24 00:20:54;;;;;;;23.42;13.55;;;19.30;99.90;;;;;;4974637;28;20039;-67
2022/07/24 00:23:21;;;;;;;24.77;15.65;;;19.30;99.90;;;;;;4975035;28;20445;-66
2022/07/24 00:25:47;;;;;;;24.20;14.48;;;19.30;99.90;;;;;;4975038;28;20065;-66
2022/07/24 00:28:12;;;;;;;23.60;14.73;;;19.30;99.90;;;;;;4974960;28;20030;-67
2022/07/24 00:30:38;;;;;;;23.67;14.77;;;19.30;99.90;;;;;;4974218;28;20098;-69
2022/07/24 00:33:03;;;;;;;24.48;14.63;;;19.30;99.90;;;;;;4974877;28;20037;-67
2022/07/24 00:35:29;;;;;;;23.50;14.82;;;19.20;99.90;;;;;;4973644;28;20114;-67
2022/07/24 00:37:55;;;;;;;25.33;14.60;;;19.20;99.90;;;;;;4976094;28;20033;-66
2022/07/24 00:40:21;;;;;;;23.25;14.57;;;19.20;99.90;;;;;;4975229;28;20122;-68
2022/07/24 00:42:47;;;;;;;26.65;14.60;;;19.20;99.90;;;;;;4975251;28;20022;-68
2022/07/24 00:45:12;;;;;;;24.55;14.88;;;19.20;99.90;;;;;;4974129;28;20356;-67
2022/07/24 00:47:38;;;;;;;22.30;13.88;;;19.20;99.90;;;;;;4973563;28;20130;-67
2022/07/24 00:50:05;;;;;;;25.30;13.20;;;19.20;99.90;;;;;;4974180;28;20066;-67
2022/07/24 00:52:31;;;;;;;24.85;14.65;;;19.10;99.90;;;;;;4974503;28;20058;-68
2022/07/24 00:54:58;;;;;;;27.30;14.35;;;19.10;99.90;;;;;;4973242;28;20455;-70
2022/07/24 00:57:24;;;;;;;22.10;13.27;;;19.10;99.90;;;;;;4974280;28;20464;-67
2022/07/24 00:59:49;;;;;;;23.80;14.63;;;19.00;99.90;;;;;;4972805;28;20468;-67
2022/07/24 01:02:15;;;;;;;25.40;13.30;;;19.00;99.90;;;;;;4973967;28;20098;-68
2022/07/24 01:04:40;;;;;;;24.40;14.85;;;18.90;99.90;;;;;;4973888;28;20058;-68
2022/07/24 01:07:07;;;;;;;24.45;15.48;;;18.90;99.90;;;;;;4973763;28;20102;-68
2022/07/24 01:09:33;;;;;;;25.30;14.73;;;18.90;99.90;;;;;;4974052;28;20073;-70
2022/07/24 01:11:59;;;;;;;25.40;14.60;;;18.90;99.90;;;;;;4973939;28;20437;-69
2022/07/24 01:14:25;;;;;;;25.85;14.77;;;18.90;99.90;;;;;;4973244;28;20034;-70
2022/07/24 01:16:51;;;;;;;25.00;14.55;;;18.80;99.90;;;;;;4973810;28;20069;-67
2022/07/24 01:19:17;;;;;;;22.35;13.15;;;18.80;99.90;;;;;;4972173;28;20046;-68
2022/07/24 01:21:51;;;;;;;24.20;14.07;;;18.80;99.90;;;;;;4972264;28;20031;-66
2022/07/24 01:24:18;;;;;;;23.58;13.05;;;18.80;99.90;;;;;;4972793;28;20030;-67
2022/07/24 01:26:44;;;;;;;23.65;13.00;;;18.70;99.90;;;;;;4972987;28;20085;-67
2022/07/24 01:29:09;;;;;;;23.13;12.68;;;18.70;99.90;;;;;;4973725;28;20027;-67
2022/07/24 01:31:38;;;;;;;22.55;13.27;;;18.70;99.90;;;;;;4973546;28;20042;-70
2022/07/24 01:34:03;;;;;;;24.05;12.13;;;18.70;99.90;;;;;;4973311;28;20346;-69
2022/07/24 01:36:29;;;;;;;21.90;13.30;;;18.70;99.90;;;;;;4973195;28;20457;-67
2022/07/24 01:38:55;;;;;;;21.60;12.55;;;18.70;99.90;;;;;;4973183;28;20409;-68
2022/07/24 01:41:20;;;;;;;20.20;11.68;;;18.60;99.90;;;;;;4973193;28;20493;-69
2022/07/24 01:43:46;;;;;;;20.40;12.32;;;18.60;99.90;;;;;;4973385;28;20027;-68
2022/07/24 01:46:12;;;;;;;20.23;12.13;;;18.70;99.90;;;;;;4972713;28;20469;-67
2022/07/24 01:48:39;;;;;;;20.45;11.27;;;18.70;99.90;;;;;;4972668;28;20045;-67
2022/07/24 01:51:05;;;;;;;21.10;11.52;;;18.60;99.90;;;;;;4971830;28;20493;-67
2022/07/24 01:53:31;;;;;;;18.65;9.60;;;18.60;99.90;;;;;;4973062;28;20055;-67
2022/07/24 01:55:57;;;;;;;19.90;10.65;;;18.60;99.90;;;;;;4973562;28;20030;-68
2022/07/24 01:58:22;;;;;;;18.90;10.82;;;18.60;99.90;;;;;;4973237;28;20513;-67
2022/07/24 02:00:48;;;;;;;18.60;10.73;;;18.70;99.90;;;;;;4973289;28;20031;-66
2022/07/24 02:03:14;;;;;;;18.52;10.00;;;18.60;99.90;;;;;;4972965;28;20093;-67
2022/07/24 02:05:40;;;;;;;17.50;8.75;;;18.70;99.90;;;;;;4973277;28;20023;-67
2022/07/24 02:08:06;;;;;;;21.90;9.60;;;18.70;99.90;;;;;;4977388;28;20081;-66
2022/07/24 02:10:32;;;;;;;19.23;9.13;;;18.60;99.90;;;;;;4976995;28;20445;-67
2022/07/24 02:12:58;;;;;;;21.33;9.52;;;18.60;99.90;;;;;;4975996;28;20109;-67
2022/07/24 02:15:24;;;;;;;17.35;8.48;;;18.60;99.90;;;;;;4977060;28;20031;-67
2022/07/24 02:17:53;;;;;;;17.52;9.70;;;18.50;99.90;;;;;;4977098;28;20421;-70
2022/07/24 02:20:19;;;;;;;20.48;9.98;;;18.50;99.90;;;;;;4976619;28;20099;-68
2022/07/24 02:22:45;;;;;;;20.13;9.95;;;18.50;99.90;;;;;;4976777;28;20099;-68
2022/07/24 02:25:11;;;;;;;22.25;10.07;;;18.50;99.90;;;;;;4976713;28;20023;-69
2022/07/24 02:27:37;;;;;;;20.63;10.00;;;18.50;99.90;;;;;;4976765;28;20026;-69
2022/07/24 02:30:06;;;;;;;17.27;8.90;;;18.50;99.90;;;;;;4975532;28;20027;-66
2022/07/24 02:32:31;;;;;;;18.08;8.90;;;18.40;99.90;;;;;;4976297;28;20384;-72
2022/07/24 02:34:57;;;;;;;19.33;9.07;;;18.40;99.90;;;;;;4976738;28;20082;-67
2022/07/24 02:37:22;;;;;;;13.75;8.45;;;18.50;99.90;;;;;;4976935;28;20035;-70
2022/07/24 02:39:48;;;;;;;17.33;8.70;;;18.50;99.90;;;;;;4975092;28;20109;-67
2022/07/24 02:42:13;;;;;;;19.42;9.07;;;18.40;99.90;;;;;;4975349;28;20031;-67
2022/07/24 02:44:39;;;;;;;16.70;8.43;;;18.40;99.90;;;;;;4976604;28;20054;-68
2022/07/24 02:47:05;;;;;;;17.17;8.68;;;18.40;99.90;;;;;;4974994;28;20384;-68
2022/07/24 02:49:30;;;;;;;16.52;8.07;;;18.40;99.90;;;;;;4976691;28;20054;-67
2022/07/24 02:51:56;;;;;;;18.30;8.80;;;18.30;99.90;;;;;;4976720;28;20027;-71
2022/07/24 02:54:21;;;;;;;15.90;8.38;;;18.30;99.90;;;;;;4976513;28;20484;-68
2022/07/24 02:56:47;;;;;;;18.63;8.40;;;18.30;99.90;;;;;;4976477;28;20058;-69
2022/07/24 02:59:12;;;;;;;15.85;8.18;;;18.30;99.90;;;;;;4976236;28;20445;-68
2022/07/24 03:01:38;;;;;;;13.88;7.40;;;18.30;99.90;;;;;;4976267;28;20790;-66
2022/07/24 03:04:04;;;;;;;16.23;7.38;;;18.30;99.90;;;;;;4976126;28;20026;-67
2022/07/24 03:06:29;;;;;;;14.65;7.00;;;18.30;99.90;;;;;;4976195;28;20341;-68
2022/07/24 03:08:55;;;;;;;18.00;8.27;;;18.30;99.90;;;;;;4976151;28;20034;-66
2022/07/24 03:11:20;;;;;;;13.50;7.55;;;18.30;99.90;;;;;;4975752;28;20034;-66
2022/07/24 03:13:46;;;;;;;12.38;6.20;;;18.20;99.90;;;;;;4976068;28;20465;-66
2022/07/24 03:16:11;;;;;;;15.82;7.40;;;18.20;99.90;;;;;;4975889;28;20097;-67
2022/07/24 03:18:37;;;;;;;16.02;7.45;;;18.20;99.90;;;;;;4975242;28;20081;-68
2022/07/24 03:21:03;;;;;;;15.23;6.88;;;18.20;99.90;;;;;;4976439;28;20073;-68
2022/07/24 03:23:28;;;;;;;16.45;7.53;;;18.20;99.90;;;;;;4975696;28;20027;-68
2022/07/24 03:25:54;;;;;;;15.00;6.93;;;18.10;99.90;;;;;;4975649;28;20062;-68
2022/07/24 03:28:20;;;;;;;14.63;7.30;;;18.10;99.90;;;;;;4975671;28;20479;-71
2022/07/24 03:30:46;;;;;;;18.40;7.65;;;18.10;99.90;;;;;;4974309;28;20030;-67
2022/07/24 03:33:12;;;;;;;15.27;7.13;;;18.10;99.90;;;;;;4975818;28;20396;-67
2022/07/24 03:35:37;;;;;;;13.80;7.20;;;18.10;99.90;;;;;;4975880;28;20058;-68
2022/07/24 03:38:03;;;;;;;14.65;6.28;;;18.10;99.90;;;;;;4975773;28;20022;-67
2022/07/24 03:40:30;;;;;;;14.98;6.95;;;18.00;99.90;;;;;;4975350;28;20023;-67
2022/07/24 03:42:55;;;;;;;16.42;7.47;;;18.00;99.90;;;;;;4975435;28;20038;-69
2022/07/24 03:45:21;;;;;;;14.23;7.07;;;18.00;99.90;;;;;;4973830;28;20060;-70
2022/07/24 03:47:46;;;;;;;18.88;7.57;;;17.90;99.90;;;;;;4975767;28;20023;-69
2022/07/24 03:50:12;;;;;;;17.20;7.82;;;17.90;99.90;;;;;;4975408;28;20033;-67
2022/07/24 03:52:37;;;;;;;16.92;7.07;;;17.90;99.90;;;;;;4974006;28;20505;-70
2022/07/24 03:55:04;;;;;;;16.92;7.78;;;17.90;99.90;;;;;;4976460;28;20057;-66
2022/07/24 03:57:30;;;;;;;19.15;8.82;;;17.90;99.90;;;;;;4980517;28;20777;-66
2022/07/24 03:59:55;;;;;;;16.98;8.13;;;17.90;99.90;;;;;;4977269;28;20035;-66
2022/07/24 04:02:21;;;;;;;21.17;8.70;;;17.90;99.90;;;;;;4975213;28;20092;-68
2022/07/24 04:04:46;;;;;;;16.38;8.43;;;17.90;99.90;;;;;;4975331;28;20127;-67
2022/07/24 04:07:12;;;;;;;16.65;8.10;;;17.90;99.90;;;;;;4973743;28;20022;-67
2022/07/24 04:09:37;;;;;;;17.35;8.18;;;17.90;99.90;;;;;;4974657;28;20029;-68
2022/07/24 04:12:03;;;;;;;19.17;8.98;;;17.90;99.90;;;;;;4974809;28;20031;-70
2022/07/24 04:14:29;;;;;;;19.80;8.55;;;17.80;99.90;;;;;;4975013;28;20045;-68
2022/07/24 04:16:54;;;;;;;19.58;9.20;;;17.90;99.90;;;;;;4974938;28;20018;-68
2022/07/24 04:19:20;;;;;;;18.33;8.52;;;17.80;99.90;;;;;;4975192;28;20031;-69
2022/07/24 04:21:45;;;;;;;21.80;9.70;;;17.80;99.90;;;;;;4974503;28;20078;-69
2022/07/24 04:24:11;;;;;;;18.02;8.02;;;17.80;99.90;;;;;;4974626;28;20366;-70
2022/07/24 04:26:37;;;;;;;20.73;8.88;;;17.80;99.90;;;;;;4974871;28;20029;-67
2022/07/24 04:29:03;;;;;;;22.90;11.00;;;17.90;99.90;;;;;;4974000;28;20037;-68
2022/07/24 04:31:28;;;;;;;18.73;7.88;;;17.80;99.90;;;;;;4972649;28;20436;-72
2022/07/24 04:33:54;;;;;;;17.42;9.07;;;17.90;99.90;;;;;;4973053;28;20023;-67
2022/07/24 04:36:19;;;;;;;25.48;12.93;;;17.90;99.90;;;;;;4974430;28;20019;-67
2022/07/24 04:38:45;;;;;;;19.05;8.82;;;17.90;99.90;;;;;;4974221;28;20034;-67
2022/07/24 04:41:14;;;;;;;16.58;7.90;;;18.00;99.90;;;;;;4974223;28;20042;-67
2022/07/24 04:43:40;;;;;;;16.80;7.82;;;18.00;99.90;;;;;;4974086;28;20022;-68
2022/07/24 04:46:05;;;;;;;21.20;9.13;;;18.00;99.90;;;;;;4974277;28;20054;-66
2022/07/24 04:48:31;;;;;;;19.42;8.85;;;18.00;99.90;;;;;;4974525;28;20092;-68
2022/07/24 04:50:57;;;;;;;17.48;7.93;;;18.00;99.90;;;;;;4972799;28;20023;-71
2022/07/24 04:53:23;;;;;;;16.23;6.90;;;18.10;99.90;;;;;;4974377;28;20476;-68
2022/07/24 04:55:48;;;;;;;20.20;8.50;;;18.10;99.90;;;;;;4974233;28;20023;-70
2022/07/24 04:58:14;;;;;;;20.05;9.20;;;18.10;99.90;;;;;;4974193;28;20023;-68
2022/07/24 05:00:39;;;;;;;17.05;8.55;;;18.10;99.90;;;;;;4974071;28;20023;-67
2022/07/24 05:03:05;;;;;;;17.90;8.00;;;18.10;99.90;;;;;;4974283;28;20030;-67
2022/07/24 05:05:30;;;;;;;15.38;7.60;;;18.20;99.90;;;;;;4974209;28;20364;-66
2022/07/24 05:07:56;;;;;;;19.33;8.07;;;18.30;99.90;;;;;;4972811;28;20350;-66
2022/07/24 05:10:21;;;;;;;18.73;9.25;;;18.30;99.90;;;;;;4974210;28;20034;-66
2022/07/24 05:12:47;;;;;;;17.42;7.22;;;18.40;99.90;;;;;;4973985;28;20045;-70
2022/07/24 05:15:12;;;;;;;14.48;7.20;;;18.40;99.90;;;;;;4974126;28;20054;-67
2022/07/24 05:17:38;;;;;;;12.98;6.20;;;18.50;99.90;;;;;;4974216;28;20027;-67
2022/07/24 05:20:05;;;;;;;14.95;7.15;;;18.50;99.90;;;;;;4973948;28;20057;-69
2022/07/24 05:22:30;;;;;;;13.30;6.55;;;18.50;99.90;;;;;;4973592;28;20027;-67
2022/07/24 05:24:56;;;;;;;14.52;5.85;;;18.60;99.90;;;;;;4974028;28;20015;-68
2022/07/24 05:27:22;;;;;;;12.23;5.38;;;18.70;99.90;;;;;;4973870;28;20034;-66
2022/07/24 05:29:47;;;;;;;10.70;4.72;;;18.80;99.90;;;;;;4974260;28;20042;-67
2022/07/24 05:32:14;;;;;;;14.48;4.85;;;18.90;99.90;;;;;;4973898;28;20027;-68
2022/07/24 05:34:39;;;;;;;14.18;5.85;;;18.90;99.90;;;;;;4974055;28;20050;-67
2022/07/24 05:37:05;;;;;;;9.07;4.60;;;19.00;99.90;;;;;;4973874;28;20441;-69
2022/07/24 05:39:31;;;;;;;16.77;6.15;;;19.10;99.90;;;;;;4974166;28;20062;-69
2022/07/24 05:41:56;;;;;;;10.20;4.75;;;19.30;99.90;;;;;;4973217;28;20023;-67
2022/07/24 05:44:22;;;;;;;11.30;5.30;;;19.60;99.90;;;;;;4973419;28;20034;-66
2022/07/24 05:46:47;;;;;;;9.18;3.35;;;20.00;99.90;;;;;;4973202;28;20047;-68
2022/07/24 05:49:13;;;;;;;10.60;5.10;;;20.40;99.90;;;;;;4973652;28;20026;-68
2022/07/24 05:51:38;;;;;;;9.02;3.95;;;20.90;99.90;;;;;;4973633;28;20039;-68
2022/07/24 05:54:04;;;;;;;6.20;2.45;;;21.10;99.90;;;;;;4973631;28;20102;-68
2022/07/24 05:56:30;;;;;;;12.07;4.78;;;21.30;99.90;;;;;;4972808;28;20027;-70
2022/07/24 05:58:56;;;;;;;5.22;2.30;;;21.40;99.90;;;;;;4973655;28;20031;-68
2022/07/24 06:01:21;;;;;;;10.88;4.65;;;21.50;99.90;;;;;;4973572;28;20129;-66
2022/07/24 06:03:47;;;;;;;7.85;3.60;;;21.60;99.90;;;;;;4972113;28;20033;-70
2022/07/24 06:06:13;;;;;;;8.95;3.50;;;21.70;99.90;;;;;;4973851;28;20027;-70
2022/07/24 06:08:38;;;;;;;10.43;2.90;;;21.80;99.90;;;;;;4973492;28;20031;-68
2022/07/24 06:11:04;;;;;;;8.68;3.65;;;21.90;99.90;;;;;;4973584;28;20041;-67
2022/07/24 06:13:30;;;;;;;6.70;2.75;;;22.00;99.90;;;;;;4973525;28;20034;-68
2022/07/24 06:15:55;;;;;;;8.77;3.70;;;22.10;99.90;;;;;;4973302;28;20376;-69
2022/07/24 06:18:21;;;;;;;8.05;3.92;;;22.20;99.90;;;;;;4972213;28;20449;-67
2022/07/24 06:20:46;;;;;;;4.78;2.58;;;22.30;99.90;;;;;;4971783;28;20459;-69
2022/07/24 06:23:12;;;;;;;6.95;3.30;;;22.30;99.90;;;;;;4973118;28;20027;-67
2022/07/24 06:25:37;;;;;;;8.25;2.95;;;22.30;99.90;;;;;;4973475;28;20045;-70
2022/07/24 06:28:03;;;;;;;6.18;2.72;;;22.20;99.90;;;;;;4971855;28;20034;-67
2022/07/24 06:30:29;;;;;;;8.75;3.85;;;22.20;99.90;;;;;;4973323;28;20027;-68
2022/07/24 06:32:58;;;;;;;6.20;3.47;;;22.40;99.90;;;;;;4971840;28;20416;-69
2022/07/24 06:35:26;;;;;;;5.80;3.08;;;22.50;99.90;;;;;;4973275;28;20469;-69
2022/07/24 06:37:52;;;;;;;9.77;3.10;;;22.70;99.90;;;;;;4973257;28;20117;-66
2022/07/24 06:40:19;;;;;;;9.45;2.85;;;22.90;99.90;;;;;;4973310;28;20101;-67
2022/07/24 06:42:47;;;;;;;3.85;2.47;;;23.00;99.90;;;;;;4973143;28;20033;-67
2022/07/24 06:45:13;;;;;;;6.82;2.97;;;23.10;99.90;;;;;;4973340;28;20069;-66
2022/07/24 06:47:39;;;;;;;5.65;2.88;;;23.20;99.90;;;;;;4972861;28;20055;-66
2022/07/24 06:50:05;;;;;;;7.43;3.03;;;23.30;99.90;;;;;;4972765;28;20098;-67
2022/07/24 06:52:31;;;;;;;8.10;3.13;;;23.30;99.90;;;;;;4972847;28;20039;-69
2022/07/24 06:54:57;;;;;;;4.68;2.70;;;23.40;99.90;;;;;;4971469;28;20153;-67
2022/07/24 06:57:25;;;;;;;6.72;2.70;;;23.90;99.90;;;;;;4976010;28;20069;-65
2022/07/24 06:59:52;;;;;;;5.50;2.55;;;25.00;99.70;;;;;;4975443;28;20019;-65
2022/07/24 07:02:18;;;;;;;4.63;2.60;;;25.80;97.90;;;;;;4975331;28;20031;-70
2022/07/24 07:04:44;;;;;;;4.88;3.28;;;26.40;96.90;;;;;;4974998;28;20173;-67
2022/07/24 07:07:09;;;;;;;4.15;2.03;;;27.00;96.00;;;;;;4976253;28;20421;-66
2022/07/24 07:09:35;;;;;;;4.68;2.10;;;27.30;94.60;;;;;;4976320;28;20027;-69
2022/07/24 07:12:01;;;;;;;5.35;2.10;;;27.10;94.40;;;;;;4974756;28;20117;-67
2022/07/24 07:14:27;;;;;;;3.67;2.05;;;26.70;95.10;;;;;;4976444;28;20054;-66
2022/07/24 07:16:52;;;;;;;4.60;1.70;;;26.60;95.20;;;;;;4977616;28;20062;-66
2022/07/24 07:19:18;;;;;;;2.28;1.90;;;26.50;94.90;;;;;;4977402;28;20119;-67
2022/07/24 07:21:44;;;;;;;4.15;2.00;;;26.40;95.10;;;;;;4974728;28;20447;-68
2022/07/24 07:24:09;;;;;;;3.47;2.05;;;26.30;95.40;;;;;;4974687;28;20027;-70
2022/07/24 07:26:35;;;;;;;3.22;2.10;;;26.00;95.50;;;;;;4974310;28;20140;-67
2022/07/24 07:29:00;;;;;;;2.85;2.00;;;25.80;96.00;;;;;;4975996;28;20033;-68
2022/07/24 07:31:27;;;;;;;7.20;2.60;;;25.70;96.30;;;;;;4975373;28;20039;-67
2022/07/24 07:33:53;;;;;;;3.85;2.15;;;25.60;96.50;;;;;;4975906;28;20110;-68
2022/07/24 07:36:21;;;;;;;6.22;2.60;;;25.70;96.20;;;;;;4975758;28;20430;-68
2022/07/24 07:38:47;;;;;;;3.95;2.00;;;25.90;95.80;;;;;;4975749;28;20029;-68
2022/07/24 07:41:12;;;;;;;2.80;2.13;;;26.30;95.40;;;;;;4974712;28;20026;-66
2022/07/24 07:43:38;;;;;;;3.20;2.13;;;26.50;94.80;;;;;;4974181;28;20030;-67
2022/07/24 07:46:05;;;;;;;2.70;2.08;;;26.70;94.80;;;;;;4974468;28;20525;-68
2022/07/24 07:48:30;;;;;;;6.32;2.25;;;26.80;94.40;;;;;;4974990;28;20037;-67
2022/07/24 07:50:56;;;;;;;6.13;2.20;;;26.90;94.60;;;;;;4975189;28;20106;-70
2022/07/24 07:53:23;;;;;;;5.57;2.33;;;27.10;94.00;;;;;;4974288;28;20023;-67
2022/07/24 07:55:51;;;;;;;4.10;2.47;;;27.10;93.80;;;;;;4975181;28;20056;-67
2022/07/24 07:58:17;;;;;;;6.32;2.42;;;26.90;94.10;;;;;;4975963;28;20027;-67
2022/07/24 08:00:43;;;;;;;4.05;1.98;;;26.80;94.10;;;;;;4975527;28;20027;-68
2022/07/24 08:03:09;;;;;;;6.15;2.45;;;26.70;94.20;;;;;;4975504;28;20064;-70
2022/07/24 08:05:34;;;;;;;4.32;2.22;;;26.70;94.60;;;;;;4975109;28;20023;-68
2022/07/24 08:08:00;;;;;;;3.50;2.13;;;26.70;94.70;;;;;;4975421;28;20158;-66
2022/07/24 08:10:25;;;;;;;3.45;2.15;;;27.00;94.20;;;;;;4973977;28;20041;-68
2022/07/24 08:12:51;;;;;;;5.80;1.95;;;27.30;93.50;;;;;;4973652;28;20182;-67
2022/07/24 08:15:17;;;;;;;3.75;2.00;;;27.30;93.10;;;;;;4974797;28;20471;-69
2022/07/24 08:17:43;;;;;;;4.70;1.90;;;27.40;93.10;;;;;;4975230;28;20027;-67
2022/07/24 08:20:09;;;;;;;3.83;1.88;;;27.50;93.10;;;;;;4975418;28;20030;-67
2022/07/24 08:22:35;;;;;;;3.67;2.10;;;28.00;92.60;;;;;;4975197;28;20029;-70
2022/07/24 08:25:00;;;;;;;3.17;2.10;;;28.40;92.20;;;;;;4975003;28;20027;-67
2022/07/24 08:27:26;;;;;;;4.30;2.10;;;28.90;91.80;;;;;;4974833;28;20085;-70
2022/07/24 08:29:52;;;;;;;2.55;1.60;;;29.60;90.50;;;;;;4974863;28;20417;-68
2022/07/24 08:32:18;;;;;;;2.28;1.55;;;30.30;88.40;;;;;;4974661;28;20033;-67
2022/07/24 08:34:44;;;;;;;3.00;1.55;;;30.70;87.00;;;;;;4973498;28;20023;-67
2022/07/24 08:37:09;;;;;;;2.47;1.48;;;31.30;85.20;;;;;;4974702;28;20031;-67
2022/07/24 08:39:35;;;;;;;3.58;2.25;;;32.00;83.30;;;;;;4974828;28;20169;-67
2022/07/24 08:42:00;;;;;;;3.03;1.67;;;32.80;81.70;;;;;;4974926;28;20106;-70
2022/07/24 08:44:26;;;;;;;4.28;1.83;;;33.20;79.60;;;;;;4974558;28;20026;-68
2022/07/24 08:46:53;;;;;;;3.80;1.90;;;32.90;79.40;;;;;;4974575;28;20055;-69
2022/07/24 08:49:20;;;;;;;3.90;2.47;;;32.70;79.60;;;;;;4974709;28;20064;-70
2022/07/24 08:51:49;;;;;;;4.25;2.00;;;33.20;78.30;;;;;;4974675;28;20030;-67
2022/07/24 08:54:15;;;;;;;2.17;1.92;;;33.70;77.10;;;;;;4974845;28;20503;-68
2022/07/24 08:56:41;;;;;;;2.03;1.42;;;33.90;75.30;;;;;;4974221;28;20019;-70
2022/07/24 08:59:21;;;;;;;3.83;1.67;;;33.70;75.70;;;;;;4974282;28;20027;-68
2022/07/24 09:01:50;;;;;;;2.00;1.45;;;33.50;75.90;;;;;;4974525;28;20193;-67
2022/07/24 09:04:38;;;;;;;1.88;1.55;;;33.50;75.30;;;;;;4974127;28;20049;-69
2022/07/24 09:07:10;;;;;;;3.90;1.90;;;33.30;75.70;;;;;;4974401;28;20449;-67
2022/07/24 09:09:37;;;;;;;3.15;1.85;;;33.60;75.40;;;;;;4973837;28;20461;-66
2022/07/24 09:12:23;;;;;;;4.30;1.90;;;33.80;75.10;;;;;;4974139;28;20070;-66
2022/07/24 09:14:48;;;;;;;3.38;1.80;;;34.60;73.30;;;;;;4973972;28;20451;-67
2022/07/24 09:17:17;;;;;;;3.45;1.80;;;35.10;72.00;;;;;;4972586;28;20031;-67
2022/07/24 09:19:52;;;;;;;4.13;1.85;;;35.10;71.40;;;;;;4973051;28;20034;-70
2022/07/24 09:22:28;;;;;;;3.20;1.90;;;34.90;71.00;;;;;;4973891;28;20058;-67
2022/07/24 09:25:17;;;;;;;2.03;1.67;;;34.70;70.60;;;;;;4974049;28;20468;-67
2022/07/24 09:27:50;;;;;;;3.03;1.80;;;35.00;69.90;;;;;;4974202;28;20174;-65
2022/07/24 09:30:29;;;;;;;6.22;2.17;;;35.00;69.20;;;;;;4974130;28;20353;-67
2022/07/24 09:32:58;;;;;;;2.55;1.83;;;35.10;69.50;;;;;;4973779;28;20043;-67
2022/07/24 09:35:33;;;;;;;4.75;2.00;;;35.00;69.00;;;;;;4973349;28;20019;-66
2022/07/24 09:38:00;;;;;;;2.13;1.80;;;34.90;69.60;;;;;;4974069;28;20022;-67
2022/07/24 09:40:37;;;;;;;3.15;1.85;;;35.40;68.40;;;;;;4971426;28;20026;-68
2022/07/24 09:43:25;;;;;;;3.35;1.92;;;35.60;68.40;;;;;;4973499;28;20098;-67
2022/07/24 09:46:06;;;;;;;5.10;2.40;;;36.00;68.00;;;;;;4973474;28;20049;-67
2022/07/24 09:48:38;;;;;;;5.63;1.60;;;36.30;67.60;;;;;;4973768;28;20026;-68
2022/07/24 09:51:14;;;;;;;2.30;1.45;;;35.80;66.70;;;;;;4973132;28;20346;-66
2022/07/24 09:53:41;;;;;;;2.70;1.80;;;35.40;67.20;;;;;;4973757;28;20062;-66
2022/07/24 09:56:09;;;;;;;2.30;1.90;;;34.80;68.00;;;;;;4973272;28;20026;-66
2022/07/24 09:58:37;;;;;;;3.28;1.80;;;34.40;68.20;;;;;;4973585;28;20031;-70
2022/07/24 10:01:05;;;;;;;7.20;1.90;;;34.10;68.60;;;;;;4973869;28;20059;-67
2022/07/24 10:03:33;;;;;;;2.33;1.58;;;34.20;68.60;;;;;;4968147;28;20027;-69
2022/07/24 10:06:05;;;;;;;6.78;1.90;;;34.70;67.90;;;;;;4972614;28;20030;-66
2022/07/24 10:08:36;;;;;;;6.72;2.20;;;34.70;67.50;;;;;;4969672;28;20029;-70
2022/07/24 10:11:02;;;;;;;3.47;1.60;;;34.80;68.00;;;;;;4966484;28;20113;-67
2022/07/24 10:13:29;;;;;;;2.65;1.70;;;35.30;66.70;;;;;;4973133;28;20138;-67
2022/07/24 10:16:00;;;;;;;2.70;1.75;;;35.50;67.00;;;;;;4973228;28;20019;-67
2022/07/24 10:18:46;;;;;;;2.90;1.70;;;35.40;66.30;;;;;;4972667;28;20023;-67
2022/07/24 10:21:25;;;;;;;2.83;1.70;;;35.30;66.60;;;;;;4973150;28;20041;-66
2022/07/24 10:23:50;;;;;;;4.55;1.90;;;35.30;66.60;;;;;;4971828;28;20089;-67
2022/07/24 10:26:31;;;;;;;4.35;1.65;;;35.30;66.50;;;;;;4973053;28;20062;-66
2022/07/24 10:29:10;;;;;;;3.50;1.90;;;35.40;66.70;;;;;;4965699;28;20097;-67
2022/07/24 10:31:42;;;;;;;5.15;1.80;;;35.70;66.20;;;;;;4976721;28;20030;-67
2022/07/24 10:34:46;;;;;;;3.10;1.42;;;35.90;66.00;;;;;;4975706;28;20371;-67
2022/07/24 10:37:20;;;;;;;1.83;1.42;;;36.50;65.00;;;;;;4977189;28;20050;-68
2022/07/24 10:40:04;;;;;;;2.33;1.55;;;36.50;64.40;;;;;;4976766;28;20031;-67
2022/07/24 10:42:30;;;;;;;2.38;1.70;;;36.20;64.90;;;;;;4976797;28;20081;-67
2022/07/24 10:45:18;;;;;;;2.17;1.60;;;35.70;65.00;;;;;;4976123;28;20023;-67
2022/07/24 10:47:45;;;;;;;5.75;1.90;;;35.70;65.00;;;;;;4974470;28;20432;-67
2022/07/24 10:50:11;;;;;;;2.65;1.80;;;35.70;65.10;;;;;;4973709;28;20508;-67
2022/07/24 10:52:39;;;;;;;3.65;1.67;;;36.00;64.70;;;;;;4976014;28;20417;-70
2022/07/24 10:55:31;;;;;;;3.63;1.77;;;36.10;64.40;;;;;;4975914;28;20086;-66
2022/07/24 10:58:12;;;;;;;2.83;1.60;;;36.10;64.40;;;;;;4976049;28;20536;-67
2022/07/24 11:00:41;;;;;;;4.03;1.70;;;36.10;64.00;;;;;;4975464;28;20061;-67
2022/07/24 11:03:24;;;;;;;7.57;1.75;;;36.30;63.50;;;;;;4974845;28;20057;-70
2022/07/24 11:06:10;;;;;;;1.92;1.30;;;36.60;63.50;;;;;;4976360;28;20065;-66
2022/07/24 11:08:49;;;;;;;1.83;1.55;;;36.40;63.70;;;;;;4976611;28;20525;-68
2022/07/24 11:11:20;;;;;;;1.60;1.50;;;36.10;63.30;;;;;;4976202;28;20035;-67
2022/07/24 11:13:51;;;;;;;2.17;1.30;;;36.00;63.20;;;;;;4976468;28;20077;-66
2022/07/24 11:16:16;;;;;;;6.43;1.65;;;36.30;62.90;;;;;;4975902;28;20440;-68
2022/07/24 11:19:02;;;;;;;2.15;1.50;;;36.20;62.70;;;;;;4975639;28;20018;-70
2022/07/24 11:21:32;;;;;;;3.00;1.23;;;36.50;61.60;;;;;;4975399;28;20023;-71
2022/07/24 11:24:20;;;;;;;2.58;1.70;;;36.80;61.00;;;;;;4972953;28;20030;-68
2022/07/24 11:26:51;;;;;;;1.90;1.48;;;37.00;60.00;;;;;;4969820;28;20122;-68
2022/07/24 11:29:18;;;;;;;2.60;1.80;;;36.40;60.80;;;;;;4975034;28;20487;-70
2022/07/24 11:31:46;;;;;;;4.82;2.20;;;36.20;61.30;;;;;;4972893;28;20042;-68
2022/07/24 11:34:12;;;;;;;8.80;2.40;;;36.20;61.10;;;;;;4969374;28;20850;-70
2022/07/24 11:36:47;;;;;;;8.75;2.85;;;35.80;61.80;;;;;;4967681;28;20027;-66
2022/07/24 11:39:14;;;;;;;2.53;2.10;;;35.90;62.00;;;;;;4978495;28;20054;-70
2022/07/24 11:41:45;;;;;;;5.05;1.92;;;36.00;61.90;;;;;;4968221;28;20046;-67
2022/07/24 11:44:11;;;;;;;3.60;1.93;;;36.20;61.30;;;;;;4956184;28;20082;-69
2022/07/24 11:46:41;;;;;;;5.25;2.00;;;36.30;61.20;;;;;;4968252;28;20047;-67
2022/07/24 11:49:09;;;;;;;4.35;1.80;;;36.30;61.20;;;;;;4975632;28;20026;-68
2022/07/24 11:51:45;;;;;;;2.50;1.90;;;36.10;62.10;;;;;;4975707;28;20034;-67
2022/07/24 11:54:13;;;;;;;2.83;1.73;;;36.50;61.40;;;;;;4975525;28;20026;-68
2022/07/24 11:56:40;;;;;;;3.00;1.83;;;36.40;61.90;;;;;;4974286;28;20413;-67
2022/07/24 11:59:20;;;;;;;5.90;2.40;;;36.80;61.40;;;;;;4975650;28;20023;-68
2022/07/24 12:01:45;;;;;;;5.03;2.10;;;37.00;60.70;;;;;;4975883;28;20427;-69
2022/07/24 12:04:11;;;;;;;5.57;2.67;;;37.10;60.20;;;;;;4975468;28;20054;-69
2022/07/24 12:06:36;;;;;;;2.15;1.95;;;36.90;60.60;;;;;;4974852;28;20041;-67
2022/07/24 12:09:07;;;;;;;3.10;2.05;;;36.90;60.70;;;;;;4974989;28;20031;-66
2022/07/24 12:11:35;;;;;;;5.38;2.40;;;37.10;60.00;;;;;;4958094;28;20062;-66
2022/07/24 12:14:04;;;;;;;3.78;2.35;;;37.00;60.20;;;;;;4956063;28;20039;-67
2022/07/24 12:16:29;;;;;;;2.45;1.90;;;37.40;60.10;;;;;;4957386;28;20035;-67
2022/07/24 12:19:15;;;;;;;2.30;2.10;;;37.80;59.60;;;;;;4960273;28;20477;-68
2022/07/24 12:21:42;;;;;;;3.60;2.40;;;38.10;59.70;;;;;;4962415;28;20031;-66
2022/07/24 12:24:08;;;;;;;4.30;2.33;;;38.20;59.50;;;;;;4964808;28;20488;-67
2022/07/24 12:26:34;;;;;;;4.25;2.30;;;38.50;59.00;;;;;;4974894;28;20027;-69
2022/07/24 12:29:09;;;;;;;6.25;2.10;;;38.80;58.10;;;;;;4972561;28;20042;-67
2022/07/24 12:31:35;;;;;;;3.83;2.30;;;38.90;58.40;;;;;;4974795;28;20022;-65
2022/07/24 12:34:00;;;;;;;5.70;2.30;;;39.10;57.90;;;;;;4975036;28;20101;-68
2022/07/24 12:36:26;;;;;;;4.32;2.28;;;38.80;58.10;;;;;;4973888;28;20444;-69
2022/07/24 12:38:54;;;;;;;4.18;2.45;;;38.50;58.70;;;;;;4973808;28;20027;-66
2022/07/24 12:41:22;;;;;;;5.88;2.60;;;38.20;58.80;;;;;;4974966;28;20078;-70
2022/07/24 12:43:59;;;;;;;5.13;2.00;;;37.90;59.20;;;;;;4974580;28;20023;-67